sensor_id;sensor_type;location;lat;lon;timestamp;pressure;altitude;pressure_sealevel;temperature;humidity
13767;BME280;47980;48.794;9.176;2022-11-20T04:46:20;97741.63;;;6.91;95.89
13767;BME280;47980;48.794;9.176;2022-11-20T04:49:02;97727.38;;;6.84;96.21
13767;BME280;47980;48.794;9.176;2022-11-20T04:51:56;97742.69;;;6.82;95.55
13767;BME280;47980;48.794;9.176;2022-11-20T04:54:32;97743.03;;;6.97;95.10
13767;BME280;47980;48.794;9.176;2022-11-20T04:57:17;97739.59;;;6.97;94.83
13767;BME280;47980;48.794;9.176;2022-11-20T05:00:12;97735.59;;;6.99;95.18
13767;BME280;47980;48.794;9.176;2022-11-20T05:03:21;97733.75;;;7.09;95.11
13767;BME280;47980;48.794;9.176;2022-11-20T05:06:42;97724.91;;;7.05;95.23
13767;BME280;47980;48.794;9.176;2022-11-20T05:36:13;97730.63;;;7.24;94.42
13767;BME280;47980;48.794;9.176;2022-11-20T05:38:45;97734.97;;;7.29;93.66
13767;BME280;47980;48.794;9.176;2022-11-20T05:41:18;97727.06;;;7.37;94.92
13767;BME280;47980;48.794;9.176;2022-11-20T05:43:50;97732.47;;;7.41;94.84
13767;BME280;47980;48.794;9.176;2022-11-20T05:46:22;97733.88;;;7.38;94.99
13767;BME280;47980;48.794;9.176;2022-11-20T05:48:54;97732.34;;;7.37;95.26
13767;BME280;47980;48.794;9.176;2022-11-20T05:51:28;97729.22;;;7.35;94.29
13767;BME280;47980;48.794;9.176;2022-11-20T05:53:59;97724.28;;;7.34;95.06
13767;BME280;47980;48.794;9.176;2022-11-20T05:56:31;97725.63;;;7.40;94.55
13767;BME280;47980;48.794;9.176;2022-11-20T05:59:03;97732.94;;;7.43;95.14
13767;BME280;47980;48.794;9.176;2022-11-20T06:01:34;97733.56;;;7.40;95.81
13767;BME280;47980;48.794;9.176;2022-11-20T06:04:06;97731.38;;;7.42;97.64
13767;BME280;47980;48.794;9.176;2022-11-20T06:06:39;97725.34;;;7.33;97.11
13767;BME280;47980;48.794;9.176;2022-11-20T06:09:11;97728.44;;;7.35;97.95
13767;BME280;47980;48.794;9.176;2022-11-20T06:11:43;97732.47;;;7.41;96.76
13767;BME280;47980;48.794;9.176;2022-11-20T06:14:14;97729.69;;;7.29;97.07
13767;BME280;47980;48.794;9.176;2022-11-20T06:16:54;97727.34;;;7.36;98.34
13767;BME280;47980;48.794;9.176;2022-11-20T06:19:26;97728.28;;;7.40;96.47
13767;BME280;47980;48.794;9.176;2022-11-20T06:21:59;97733.25;;;7.33;97.78
13767;BME280;47980;48.794;9.176;2022-11-20T06:24:30;97721.47;;;7.39;97.42
13767;BME280;47980;48.794;9.176;2022-11-20T06:27:02;97726.28;;;7.28;96.42
13767;BME280;47980;48.794;9.176;2022-11-20T06:29:34;97719.44;;;7.18;96.00
13767;BME280;47980;48.794;9.176;2022-11-20T06:32:06;97714.31;;;7.22;96.47
13767;BME280;47980;48.794;9.176;2022-11-20T06:34:37;97721.63;;;7.16;97.38
13767;BME280;47980;48.794;9.176;2022-11-20T06:37:11;97714.81;;;7.15;96.50
13767;BME280;47980;48.794;9.176;2022-11-20T06:39:42;97709.03;;;7.22;95.89
13767;BME280;47980;48.794;9.176;2022-11-20T06:42:14;97712.16;;;7.24;94.83
13767;BME280;47980;48.794;9.176;2022-11-20T06:44:46;97711.22;;;7.29;93.68
13767;BME280;47980;48.794;9.176;2022-11-20T06:47:17;97717.28;;;7.38;94.34
13767;BME280;47980;48.794;9.176;2022-11-20T06:49:49;97725.03;;;7.43;94.04
13767;BME280;47980;48.794;9.176;2022-11-20T06:52:22;97727.66;;;7.43;93.35
13767;BME280;47980;48.794;9.176;2022-11-20T06:54:54;97718.84;;;7.30;91.02
13767;BME280;47980;48.794;9.176;2022-11-20T06:57:26;97725.34;;;7.33;91.12
13767;BME280;47980;48.794;9.176;2022-11-20T06:59:57;97728.75;;;7.33;91.32
13767;BME280;47980;48.794;9.176;2022-11-20T07:02:29;97732.19;;;7.34;90.36
13767;BME280;47980;48.794;9.176;2022-11-20T07:05:24;97726.13;;;7.24;92.14
13767;BME280;47980;48.794;9.176;2022-11-20T07:07:57;97737.59;;;7.29;90.95
13767;BME280;47980;48.794;9.176;2022-11-20T07:10:29;97727.03;;;7.29;91.38
13767;BME280;47980;48.794;9.176;2022-11-20T07:13:01;97734.97;;;7.37;91.82
13767;BME280;47980;48.794;9.176;2022-11-20T07:15:32;97733.56;;;7.40;91.48
13767;BME280;47980;48.794;9.176;2022-11-20T07:18:04;97733.41;;;7.36;90.46
13767;BME280;47980;48.794;9.176;2022-11-20T07:20:36;97740.56;;;7.44;90.44
13767;BME280;47980;48.794;9.176;2022-11-20T07:23:09;97737.72;;;7.58;91.09
13767;BME280;47980;48.794;9.176;2022-11-20T07:25:41;97734.00;;;7.59;90.00
13767;BME280;47980;48.794;9.176;2022-11-20T07:28:15;97743.78;;;7.50;90.11
13767;BME280;47980;48.794;9.176;2022-11-20T07:30:50;97735.06;;;7.58;90.33
13767;BME280;47980;48.794;9.176;2022-11-20T07:33:22;97746.41;;;7.59;90.63
13767;BME280;47980;48.794;9.176;2022-11-20T07:35:54;97748.44;;;7.53;89.91
13767;BME280;47980;48.794;9.176;2022-11-20T07:38:27;97746.88;;;7.61;90.52
13767;BME280;47980;48.794;9.176;2022-11-20T07:40:59;97735.56;;;7.60;89.44
13767;BME280;47980;48.794;9.176;2022-11-20T07:43:32;97743.63;;;7.64;88.30
13767;BME280;47980;48.794;9.176;2022-11-20T07:46:04;97741.25;;;7.80;88.53
13767;BME280;47980;48.794;9.176;2022-11-20T07:48:35;97735.53;;;7.78;87.15
13767;BME280;47980;48.794;9.176;2022-11-20T07:51:07;97732.94;;;7.99;87.16
13767;BME280;47980;48.794;9.176;2022-11-20T07:53:40;97741.97;;;8.06;87.07
13767;BME280;47980;48.794;9.176;2022-11-20T07:56:12;97749.56;;;8.08;85.68
13767;BME280;47980;48.794;9.176;2022-11-20T07:58:44;97752.66;;;8.10;86.77
13767;BME280;47980;48.794;9.176;2022-11-20T08:01:16;97748.78;;;8.07;86.91
13767;BME280;47980;48.794;9.176;2022-11-20T08:03:47;97754.84;;;8.08;87.17
13767;BME280;47980;48.794;9.176;2022-11-20T08:06:20;97755.47;;;8.13;85.00
13767;BME280;47980;48.794;9.176;2022-11-20T08:09:11;97757.75;;;8.15;86.93
13767;BME280;47980;48.794;9.176;2022-11-20T08:11:43;97759.00;;;8.17;86.36
13767;BME280;47980;48.794;9.176;2022-11-20T08:14:27;97765.69;;;8.15;86.58
13767;BME280;47980;48.794;9.176;2022-11-20T08:16:59;97760.91;;;8.08;87.34
13767;BME280;47980;48.794;9.176;2022-11-20T08:19:30;97763.97;;;8.19;86.65
13767;BME280;47980;48.794;9.176;2022-11-20T08:22:02;97766.47;;;8.15;87.55
13767;BME280;47980;48.794;9.176;2022-11-20T08:24:36;97763.16;;;8.27;86.32
13767;BME280;47980;48.794;9.176;2022-11-20T08:27:07;97776.19;;;8.32;86.01
13767;BME280;47980;48.794;9.176;2022-11-20T08:29:41;97766.25;;;8.38;85.33
13767;BME280;47980;48.794;9.176;2022-11-20T08:32:15;97773.25;;;8.42;84.89
13767;BME280;47980;48.794;9.176;2022-11-20T08:34:47;97758.44;;;8.50;85.83
13767;BME280;47980;48.794;9.176;2022-11-20T08:37:20;97764.50;;;8.42;86.37
13767;BME280;47980;48.794;9.176;2022-11-20T08:39:53;97767.16;;;8.42;85.83
13767;BME280;47980;48.794;9.176;2022-11-20T08:42:27;97774.00;;;8.73;83.74
13767;BME280;47980;48.794;9.176;2022-11-20T08:44:58;97768.88;;;8.76;83.84
13767;BME280;47980;48.794;9.176;2022-11-20T08:47:30;97770.75;;;8.97;82.92
13767;BME280;47980;48.794;9.176;2022-11-20T08:50:01;97764.88;;;8.91;83.17
13767;BME280;47980;48.794;9.176;2022-11-20T08:52:33;97767.72;;;9.07;83.07
13767;BME280;47980;48.794;9.176;2022-11-20T08:55:07;97778.75;;;9.09;81.99
13767;BME280;47980;48.794;9.176;2022-11-20T08:57:39;97774.03;;;9.14;81.24
13767;BME280;47980;48.794;9.176;2022-11-20T09:00:12;97775.78;;;9.31;79.74
13767;BME280;47980;48.794;9.176;2022-11-20T09:02:43;97773.41;;;9.38;80.74
13767;BME280;47980;48.794;9.176;2022-11-20T09:05:15;97778.34;;;9.40;81.15
13767;BME280;47980;48.794;9.176;2022-11-20T09:07:48;97784.88;;;9.43;79.33
13767;BME280;47980;48.794;9.176;2022-11-20T09:10:22;97776.44;;;9.28;81.89
13767;BME280;47980;48.794;9.176;2022-11-20T09:12:54;97779.16;;;9.40;79.06
13767;BME280;47980;48.794;9.176;2022-11-20T09:15:26;97780.31;;;9.31;80.37
13767;BME280;47980;48.794;9.176;2022-11-20T09:17:59;97783.59;;;9.28;79.98
13767;BME280;47980;48.794;9.176;2022-11-20T09:20:31;97797.16;;;9.26;79.78
13767;BME280;47980;48.794;9.176;2022-11-20T09:23:03;97798.06;;;9.30;80.06
13767;BME280;47980;48.794;9.176;2022-11-20T09:25:35;97799.28;;;9.12;80.69
13767;BME280;47980;48.794;9.176;2022-11-20T09:28:07;97787.41;;;9.18;80.65
13767;BME280;47980;48.794;9.176;2022-11-20T09:30:39;97797.34;;;9.21;81.82
13767;BME280;47980;48.794;9.176;2022-11-20T09:33:10;97800.97;;;9.16;82.51
13767;BME280;47980;48.794;9.176;2022-11-20T09:35:42;97796.31;;;9.13;82.17
13767;BME280;47980;48.794;9.176;2022-11-20T09:38:14;97814.53;;;9.15;82.12
13767;BME280;47980;48.794;9.176;2022-11-20T09:40:52;97808.91;;;9.16;81.77
13767;BME280;47980;48.794;9.176;2022-11-20T09:43:37;97804.09;;;8.89;81.83
13767;BME280;47980;48.794;9.176;2022-11-20T09:46:17;97807.25;;;9.03;82.71
13767;BME280;47980;48.794;9.176;2022-11-20T09:49:01;97803.69;;;9.08;82.54
13767;BME280;47980;48.794;9.176;2022-11-20T09:51:40;97809.16;;;9.24;80.21
13767;BME280;47980;48.794;9.176;2022-11-20T09:54:18;97815.09;;;9.21;80.00
13767;BME280;47980;48.794;9.176;2022-11-20T09:56:54;97817.97;;;9.07;80.39
13767;BME280;47980;48.794;9.176;2022-11-20T09:59:33;97815.59;;;9.14;79.55
13767;BME280;47980;48.794;9.176;2022-11-20T10:02:16;97812.34;;;8.87;82.30
13767;BME280;47980;48.794;9.176;2022-11-20T10:04:52;97812.00;;;8.98;80.66
13767;BME280;47980;48.794;9.176;2022-11-20T10:07:28;97807.06;;;8.87;81.28
13767;BME280;47980;48.794;9.176;2022-11-20T10:10:02;97807.69;;;8.84;83.06
13767;BME280;47980;48.794;9.176;2022-11-20T10:12:51;97812.78;;;8.89;83.39
13767;BME280;47980;48.794;9.176;2022-11-20T10:15:33;97808.09;;;8.95;82.58
13767;BME280;47980;48.794;9.176;2022-11-20T10:18:20;97819.31;;;8.92;82.38
13767;BME280;47980;48.794;9.176;2022-11-20T10:21:03;97815.97;;;8.83;84.00
13767;BME280;47980;48.794;9.176;2022-11-20T10:24:25;97816.19;;;8.99;84.22
13767;BME280;47980;48.794;9.176;2022-11-20T10:27:08;97822.19;;;8.78;85.47
13767;BME280;47980;48.794;9.176;2022-11-20T10:29:58;97827.31;;;8.54;88.04
13767;BME280;47980;48.794;9.176;2022-11-20T10:32:35;97842.69;;;8.52;90.34
13767;BME280;47980;48.794;9.176;2022-11-20T10:35:18;97843.94;;;8.46;92.13
13767;BME280;47980;48.794;9.176;2022-11-20T10:37:55;97838.16;;;8.61;93.09
13767;BME280;47980;48.794;9.176;2022-11-20T10:40:34;97839.69;;;8.62;93.69
13767;BME280;47980;48.794;9.176;2022-11-20T10:43:11;97835.03;;;8.59;94.18
13767;BME280;47980;48.794;9.176;2022-11-20T10:45:50;97840.28;;;8.67;94.29
13767;BME280;47980;48.794;9.176;2022-11-20T10:48:26;97836.22;;;8.70;95.10
13767;BME280;47980;48.794;9.176;2022-11-20T10:51:11;97836.09;;;8.66;96.65
13767;BME280;47980;48.794;9.176;2022-11-20T10:53:51;97830.72;;;8.84;95.55
13767;BME280;47980;48.794;9.176;2022-11-20T10:56:31;97825.94;;;8.77;95.07
13767;BME280;47980;48.794;9.176;2022-11-20T10:59:26;97828.44;;;8.74;95.05
13767;BME280;47980;48.794;9.176;2022-11-20T11:02:00;97812.50;;;8.91;95.02
13767;BME280;47980;48.794;9.176;2022-11-20T11:04:36;97814.41;;;9.11;95.83
13767;BME280;47980;48.794;9.176;2022-11-20T11:07:12;97816.19;;;9.20;94.23
13767;BME280;47980;48.794;9.176;2022-11-20T11:09:48;97811.59;;;9.29;95.47
13767;BME280;47980;48.794;9.176;2022-11-20T11:12:21;97815.72;;;8.97;93.88
13767;BME280;47980;48.794;9.176;2022-11-20T11:14:54;97814.44;;;9.03;95.70
13767;BME280;47980;48.794;9.176;2022-11-20T11:17:29;97805.09;;;9.05;94.45
13767;BME280;47980;48.794;9.176;2022-11-20T11:20:14;97799.47;;;9.28;94.29
13767;BME280;47980;48.794;9.176;2022-11-20T11:22:48;97804.03;;;9.19;93.75
13767;BME280;47980;48.794;9.176;2022-11-20T11:25:24;97784.44;;;9.20;96.95
13767;BME280;47980;48.794;9.176;2022-11-20T11:27:58;97775.72;;;9.40;95.91
13767;BME280;47980;48.794;9.176;2022-11-20T11:30:40;97777.72;;;9.43;94.92
13767;BME280;47980;48.794;9.176;2022-11-20T11:33:19;97773.59;;;9.33;95.23
13767;BME280;47980;48.794;9.176;2022-11-20T11:35:52;97773.00;;;9.28;95.43
13767;BME280;47980;48.794;9.176;2022-11-20T11:38:30;97769.59;;;9.27;96.69
13767;BME280;47980;48.794;9.176;2022-11-20T11:41:06;97767.59;;;9.45;93.87
13767;BME280;47980;48.794;9.176;2022-11-20T11:43:38;97758.41;;;9.43;95.02
13767;BME280;47980;48.794;9.176;2022-11-20T11:46:30;97755.91;;;9.58;95.20
13767;BME280;47980;48.794;9.176;2022-11-20T11:49:15;97747.50;;;9.77;92.21
13767;BME280;47980;48.794;9.176;2022-11-20T11:51:58;97749.50;;;9.80;93.38
13767;BME280;47980;48.794;9.176;2022-11-20T11:54:35;97748.22;;;9.65;91.40
13767;BME280;47980;48.794;9.176;2022-11-20T11:57:15;97743.63;;;9.75;90.47
13767;BME280;47980;48.794;9.176;2022-11-20T11:59:57;97743.16;;;10.06;89.27
13767;BME280;47980;48.794;9.176;2022-11-20T12:02:36;97735.09;;;10.27;89.18
13767;BME280;47980;48.794;9.176;2022-11-20T12:05:18;97728.72;;;10.40;85.16
13767;BME280;47980;48.794;9.176;2022-11-20T12:07:53;97728.06;;;10.43;84.80
13767;BME280;47980;48.794;9.176;2022-11-20T12:10:37;97738.22;;;10.41;80.02
13767;BME280;47980;48.794;9.176;2022-11-20T12:13:20;97732.44;;;10.15;81.65
13767;BME280;47980;48.794;9.176;2022-11-20T12:15:53;97735.78;;;10.36;80.56
13767;BME280;47980;48.794;9.176;2022-11-20T12:18:24;97739.63;;;10.26;78.32
13767;BME280;47980;48.794;9.176;2022-11-20T12:21:06;97734.50;;;10.09;76.23
13767;BME280;47980;48.794;9.176;2022-11-20T12:23:50;97733.28;;;9.94;75.77
13767;BME280;47980;48.794;9.176;2022-11-20T12:26:43;97724.75;;;9.76;75.54
13767;BME280;47980;48.794;9.176;2022-11-20T12:29:25;97718.25;;;9.98;76.30
13767;BME280;47980;48.794;9.176;2022-11-20T12:32:27;97720.59;;;10.00;74.40
13767;BME280;47980;48.794;9.176;2022-11-20T12:35:11;97717.41;;;10.06;73.88
13767;BME280;47980;48.794;9.176;2022-11-20T12:37:52;97717.41;;;10.06;74.06
13767;BME280;47980;48.794;9.176;2022-11-20T12:40:37;97715.63;;;9.98;73.50
13767;BME280;47980;48.794;9.176;2022-11-20T12:43:17;97724.59;;;10.18;71.78
13767;BME280;47980;48.794;9.176;2022-11-20T12:46:24;97718.28;;;10.23;71.48
13767;BME280;47980;48.794;9.176;2022-11-20T12:49:17;97719.19;;;10.51;67.14
13767;BME280;47980;48.794;9.176;2022-11-20T12:52:02;97712.25;;;10.47;68.27
13767;BME280;47980;48.794;9.176;2022-11-20T12:55:14;97717.09;;;10.57;66.08
13767;BME280;47980;48.794;9.176;2022-11-20T12:57:52;97727.25;;;10.55;66.10
13767;BME280;47980;48.794;9.176;2022-11-20T13:00:25;97722.63;;;10.52;64.64
13767;BME280;47980;48.794;9.176;2022-11-20T13:03:25;97718.66;;;10.58;64.70
13767;BME280;47980;48.794;9.176;2022-11-20T13:06:08;97717.75;;;10.78;62.77
13767;BME280;47980;48.794;9.176;2022-11-20T13:08:43;97718.25;;;10.84;63.37
13767;BME280;47980;48.794;9.176;2022-11-20T13:11:24;97721.75;;;10.48;63.56
13767;BME280;47980;48.794;9.176;2022-11-20T13:14:14;97724.41;;;10.48;64.27
13767;BME280;47980;48.794;9.176;2022-11-20T13:16:51;97722.31;;;10.53;63.67
13767;BME280;47980;48.794;9.176;2022-11-20T13:19:25;97711.59;;;10.38;64.57
13767;BME280;47980;48.794;9.176;2022-11-20T13:21:57;97716.53;;;10.15;64.13
13767;BME280;47980;48.794;9.176;2022-11-20T13:24:30;97719.41;;;10.22;64.67
13767;BME280;47980;48.794;9.176;2022-11-20T13:27:16;97708.78;;;9.97;63.77
13767;BME280;47980;48.794;9.176;2022-11-20T13:30:01;97705.63;;;10.28;63.73
13767;BME280;47980;48.794;9.176;2022-11-20T13:32:33;97695.59;;;9.76;63.68
13767;BME280;47980;48.794;9.176;2022-11-20T13:35:05;97696.84;;;9.79;63.69
13767;BME280;47980;48.794;9.176;2022-11-20T13:37:37;97686.81;;;9.84;64.93
13767;BME280;47980;48.794;9.176;2022-11-20T13:40:22;97692.34;;;9.92;63.57
13767;BME280;47980;48.794;9.176;2022-11-20T13:43:08;97692.34;;;9.92;63.23
13767;BME280;47980;48.794;9.176;2022-11-20T13:45:42;97696.53;;;9.80;65.02
13767;BME280;47980;48.794;9.176;2022-11-20T13:48:21;97694.19;;;9.79;65.93
13767;BME280;47980;48.794;9.176;2022-11-20T13:51:00;97690.72;;;9.54;65.47
13767;BME280;47980;48.794;9.176;2022-11-20T13:53:52;97700.44;;;9.62;65.74
13767;BME280;47980;48.794;9.176;2022-11-20T13:56:36;97692.19;;;9.63;65.30
13767;BME280;47980;48.794;9.176;2022-11-20T13:59:23;97685.75;;;9.52;65.07
13767;BME280;47980;48.794;9.176;2022-11-20T14:01:57;97702.94;;;9.46;67.65
13767;BME280;47980;48.794;9.176;2022-11-20T14:04:32;97702.94;;;9.46;69.21
13767;BME280;47980;48.794;9.176;2022-11-20T14:07:05;97682.75;;;9.42;71.42
13767;BME280;47980;48.794;9.176;2022-11-20T14:09:37;97691.63;;;9.25;72.56
13767;BME280;47980;48.794;9.176;2022-11-20T14:12:16;97692.00;;;9.14;73.90
13767;BME280;47980;48.794;9.176;2022-11-20T14:14:52;97688.56;;;8.81;74.74
13767;BME280;47980;48.794;9.176;2022-11-20T14:17:30;97688.63;;;8.72;76.67
13767;BME280;47980;48.794;9.176;2022-11-20T14:20:06;97695.00;;;8.71;76.38
13767;BME280;47980;48.794;9.176;2022-11-20T14:22:38;97692.59;;;8.78;76.41
13767;BME280;47980;48.794;9.176;2022-11-20T14:25:19;97684.13;;;8.94;76.48
13767;BME280;47980;48.794;9.176;2022-11-20T14:27:54;97692.19;;;8.97;76.08
13767;BME280;47980;48.794;9.176;2022-11-20T14:30:35;97694.72;;;8.64;77.73
13767;BME280;47980;48.794;9.176;2022-11-20T14:33:11;97691.13;;;8.68;79.45
13767;BME280;47980;48.794;9.176;2022-11-20T14:35:45;97688.28;;;8.74;77.94
13767;BME280;47980;48.794;9.176;2022-11-20T14:38:21;97684.88;;;8.73;78.11
13767;BME280;47980;48.794;9.176;2022-11-20T14:40:53;97682.69;;;8.75;79.09
13767;BME280;47980;48.794;9.176;2022-11-20T14:43:26;97680.97;;;8.79;77.96
13767;BME280;47980;48.794;9.176;2022-11-20T14:46:02;97674.44;;;8.77;79.10
13767;BME280;47980;48.794;9.176;2022-11-20T14:48:37;97676.69;;;8.66;79.39
13767;BME280;47980;48.794;9.176;2022-11-20T14:51:10;97673.53;;;8.73;79.95
13767;BME280;47980;48.794;9.176;2022-11-20T14:53:42;97655.91;;;8.77;81.57
13767;BME280;47980;48.794;9.176;2022-11-20T14:56:21;97654.94;;;8.60;78.42
13767;BME280;47980;48.794;9.176;2022-11-20T14:58:56;97652.75;;;8.62;78.57
13767;BME280;47980;48.794;9.176;2022-11-20T15:01:31;97649.78;;;8.64;79.82
13767;BME280;47980;48.794;9.176;2022-11-20T15:04:06;97648.72;;;8.65;79.20
13767;BME280;47980;48.794;9.176;2022-11-20T15:06:48;97644.06;;;8.62;78.66
13767;BME280;47980;48.794;9.176;2022-11-20T15:09:20;97635.75;;;8.72;80.77
13767;BME280;47980;48.794;9.176;2022-11-20T15:11:54;97640.91;;;8.48;78.70
13767;BME280;47980;48.794;9.176;2022-11-20T15:14:28;97633.28;;;8.46;80.47
13767;BME280;47980;48.794;9.176;2022-11-20T15:17:01;97641.56;;;8.36;78.01
13767;BME280;47980;48.794;9.176;2022-11-20T15:19:33;97638.19;;;8.27;81.11
13767;BME280;47980;48.794;9.176;2022-11-20T15:22:09;97629.69;;;8.21;81.19
13767;BME280;47980;48.794;9.176;2022-11-20T15:24:43;97631.44;;;8.17;82.63
13767;BME280;47980;48.794;9.176;2022-11-20T15:27:14;97624.91;;;8.14;82.50
13767;BME280;47980;48.794;9.176;2022-11-20T15:29:46;97625.63;;;7.94;84.65
13767;BME280;47980;48.794;9.176;2022-11-20T15:32:19;97628.00;;;7.87;85.11
13767;BME280;47980;48.794;9.176;2022-11-20T15:34:50;97628.31;;;7.85;85.77
13767;BME280;47980;48.794;9.176;2022-11-20T15:37:22;97625.69;;;7.85;85.71
13767;BME280;47980;48.794;9.176;2022-11-20T15:39:53;97630.97;;;7.77;87.73
13767;BME280;47980;48.794;9.176;2022-11-20T15:42:25;97629.63;;;7.70;88.32
13767;BME280;47980;48.794;9.176;2022-11-20T15:44:57;97620.81;;;7.58;90.53
13767;BME280;47980;48.794;9.176;2022-11-20T15:47:31;97611.22;;;7.53;89.47
13767;BME280;47980;48.794;9.176;2022-11-20T15:50:09;97622.41;;;7.50;87.99
13767;BME280;47980;48.794;9.176;2022-11-20T15:52:45;97615.56;;;7.49;89.76
13767;BME280;47980;48.794;9.176;2022-11-20T15:55:16;97622.88;;;7.43;88.73
13767;BME280;47980;48.794;9.176;2022-11-20T15:57:48;97618.84;;;7.46;86.80
13767;BME280;47980;48.794;9.176;2022-11-20T16:00:19;97619.16;;;7.44;87.47
13767;BME280;47980;48.794;9.176;2022-11-20T16:02:52;97618.66;;;7.51;89.95
13767;BME280;47980;48.794;9.176;2022-11-20T16:05:27;97609.84;;;7.47;91.86
13767;BME280;47980;48.794;9.176;2022-11-20T16:07:59;97607.53;;;7.45;92.54
13767;BME280;47980;48.794;9.176;2022-11-20T16:10:31;97610.16;;;7.45;92.94
13767;BME280;47980;48.794;9.176;2022-11-20T16:13:05;97605.03;;;7.40;94.62
13767;BME280;47980;48.794;9.176;2022-11-20T16:16:02;97601.19;;;7.38;94.32
13767;BME280;47980;48.794;9.176;2022-11-20T16:18:37;97605.38;;;7.39;93.20
13767;BME280;47980;48.794;9.176;2022-11-20T16:21:11;97612.81;;;7.37;93.37
13767;BME280;47980;48.794;9.176;2022-11-20T16:23:43;97609.88;;;7.38;94.20
13767;BME280;47980;48.794;9.176;2022-11-20T16:26:16;97607.03;;;7.43;94.17
13767;BME280;47980;48.794;9.176;2022-11-20T16:28:49;97600.50;;;7.50;92.30
13767;BME280;47980;48.794;9.176;2022-11-20T16:31:21;97596.00;;;7.50;92.07
13767;BME280;47980;48.794;9.176;2022-11-20T16:33:55;97591.94;;;7.61;90.49
13767;BME280;47980;48.794;9.176;2022-11-20T16:36:28;97596.38;;;7.69;91.24
13767;BME280;47980;48.794;9.176;2022-11-20T16:39:02;97597.63;;;7.72;91.03
13767;BME280;47980;48.794;9.176;2022-11-20T16:41:34;97590.44;;;7.81;91.92
13767;BME280;47980;48.794;9.176;2022-11-20T16:44:07;97592.47;;;7.76;92.92
13767;BME280;47980;48.794;9.176;2022-11-20T16:46:39;97589.56;;;7.68;91.62
13767;BME280;47980;48.794;9.176;2022-11-20T16:49:13;97586.34;;;7.63;90.30
13767;BME280;47980;48.794;9.176;2022-11-20T16:51:44;97583.78;;;7.75;89.92
13767;BME280;47980;48.794;9.176;2022-11-20T16:54:16;97588.75;;;7.77;90.52
13767;BME280;47980;48.794;9.176;2022-11-20T16:56:47;97581.75;;;7.81;89.85
13767;BME280;47980;48.794;9.176;2022-11-20T16:59:21;97581.44;;;7.82;89.66
13767;BME280;47980;48.794;9.176;2022-11-20T17:01:52;97580.25;;;7.71;89.87
13767;BME280;47980;48.794;9.176;2022-11-20T17:04:25;97570.41;;;7.80;88.91
13767;BME280;47980;48.794;9.176;2022-11-20T17:06:56;97582.34;;;7.86;89.95
13767;BME280;47980;48.794;9.176;2022-11-20T17:09:28;97564.31;;;7.88;89.82
13767;BME280;47980;48.794;9.176;2022-11-20T17:11:59;97569.22;;;7.99;87.78
13767;BME280;47980;48.794;9.176;2022-11-20T17:14:31;97560.00;;;8.05;85.79
13767;BME280;47980;48.794;9.176;2022-11-20T17:17:03;97571.81;;;8.07;86.04
13767;BME280;47980;48.794;9.176;2022-11-20T17:19:35;97567.16;;;8.04;85.45
13767;BME280;47980;48.794;9.176;2022-11-20T17:22:07;97555.84;;;8.04;86.94
13767;BME280;47980;48.794;9.176;2022-11-20T17:24:39;97559.25;;;8.04;88.47
13767;BME280;47980;48.794;9.176;2022-11-20T17:27:10;97561.13;;;8.04;88.20
13767;BME280;47980;48.794;9.176;2022-11-20T17:29:42;97560.47;;;8.07;87.00
13767;BME280;47980;48.794;9.176;2022-11-20T17:32:13;97560.47;;;8.07;86.12
13767;BME280;47980;48.794;9.176;2022-11-20T17:34:46;97555.84;;;8.04;85.48
13767;BME280;47980;48.794;9.176;2022-11-20T17:37:18;97550.69;;;8.07;86.50
13767;BME280;47980;48.794;9.176;2022-11-20T17:39:49;97550.81;;;8.11;86.43
13767;BME280;47980;48.794;9.176;2022-11-20T17:42:21;97553.19;;;8.04;86.16
13767;BME280;47980;48.794;9.176;2022-11-20T17:45:07;97544.34;;;8.20;83.38
13767;BME280;47980;48.794;9.176;2022-11-20T17:47:38;97542.56;;;8.12;84.79
13767;BME280;47980;48.794;9.176;2022-11-20T17:50:11;97539.47;;;8.10;84.95
13767;BME280;47980;48.794;9.176;2022-11-20T17:52:42;97541.47;;;8.13;84.56
13767;BME280;47980;48.794;9.176;2022-11-20T17:55:14;97541.91;;;8.15;83.34
13767;BME280;47980;48.794;9.176;2022-11-20T17:57:46;97540.63;;;8.22;83.92
13767;BME280;47980;48.794;9.176;2022-11-20T18:00:22;97531.22;;;8.12;83.21
13767;BME280;47980;48.794;9.176;2022-11-20T18:02:54;97536.50;;;8.12;82.23
13767;BME280;47980;48.794;9.176;2022-11-20T18:05:27;97518.66;;;8.30;81.50
13767;BME280;47980;48.794;9.176;2022-11-20T18:07:58;97511.69;;;8.04;83.13
13767;BME280;47980;48.794;9.176;2022-11-20T18:10:30;97511.63;;;8.13;82.07
13767;BME280;47980;48.794;9.176;2022-11-20T18:13:02;97513.50;;;8.12;82.19
13767;BME280;47980;48.794;9.176;2022-11-20T18:15:34;97509.78;;;8.13;81.90
13767;BME280;47980;48.794;9.176;2022-11-20T18:18:05;97508.69;;;8.14;80.62
13767;BME280;47980;48.794;9.176;2022-11-20T18:20:38;97510.72;;;8.09;82.41
13767;BME280;47980;48.794;9.176;2022-11-20T18:23:10;97509.31;;;8.11;82.58
13767;BME280;47980;48.794;9.176;2022-11-20T18:25:42;97506.53;;;8.08;81.96
13767;BME280;47980;48.794;9.176;2022-11-20T18:28:16;97499.78;;;8.19;81.17
13767;BME280;47980;48.794;9.176;2022-11-20T18:30:49;97492.44;;;8.25;81.38
13767;BME280;47980;48.794;9.176;2022-11-20T18:33:20;97491.66;;;8.24;81.11
13767;BME280;47980;48.794;9.176;2022-11-20T18:35:53;97487.81;;;8.22;80.58
13767;BME280;47980;48.794;9.176;2022-11-20T18:38:25;97482.44;;;8.09;84.07
13767;BME280;47980;48.794;9.176;2022-11-20T18:40:56;97480.25;;;8.11;84.07
13767;BME280;47980;48.794;9.176;2022-11-20T18:43:28;97481.66;;;8.09;82.83
13767;BME280;47980;48.794;9.176;2022-11-20T18:46:19;97490.22;;;8.06;84.74
13767;BME280;47980;48.794;9.176;2022-11-20T18:48:51;97491.81;;;8.07;82.78
13767;BME280;47980;48.794;9.176;2022-11-20T18:51:24;97489.47;;;8.05;83.38
13767;BME280;47980;48.794;9.176;2022-11-20T18:53:55;97485.38;;;7.95;78.89
13767;BME280;47980;48.794;9.176;2022-11-20T18:56:28;97478.94;;;7.84;81.94
13767;BME280;47980;48.794;9.176;2022-11-20T18:58:59;97491.59;;;7.91;83.88
13767;BME280;47980;48.794;9.176;2022-11-20T19:01:31;97478.91;;;7.63;83.49
13767;BME280;47980;48.794;9.176;2022-11-20T19:04:05;97468.91;;;7.69;85.88
13767;BME280;47980;48.794;9.176;2022-11-20T19:06:39;97470.00;;;7.68;87.74
13767;BME280;47980;48.794;9.176;2022-11-20T19:09:12;97470.47;;;7.70;88.27